Weather History for Richmond, KY

Change the Weather History Date:

Monday, May 6, 2013

  Actual Average (KLOZ) Record (KLOZ)
Temperature  
Mean Temperature 58 °F 62 °F  
Max Temperature 66 °F 74 °F 88 °F (1959)
Min Temperature 50 °F 51 °F 31 °F (1968)
Degree Days  
Heating Degree Days 7 4  
Month to date heating degree days 28  
Since 1 July heating degree days 4129  
Cooling Degree Days 0 2  
Month to date cooling degree days 7  
Year to date cooling degree days 33  
Growing Degree Days 8 (Base 50)    
Moisture  
Dew Point 50 °F    
Average Humidity 89    
Maximum Humidity 100    
Minimum Humidity 64    
Precipitation  
Precipitation 0.00 in 0.16 in 2.48 in (1984)
Month to date precipitation 0.94  
Year to date precipitation 16.29  
Sea Level Pressure  
Sea Level Pressure 29.86 in    
Wind  
Wind Speed 8 mph (ENE)    
Max Wind Speed 16 mph    
Max Gust Speed 26 mph    
Visibility 9 miles    
Events      
T = Trace of Precipitation, MM = Missing Value Source: NWS Daily Summary

Daily Weather History Graph

Daily Weather History Graph

Search for Another Location

Airport:

Trip Planner

Search our weather history database for the weather conditions in past years. The results will help you decide how hot, cold, wet, or windy it might be!

Date:

Astronomy

May. 06, 2013 Rise Set
Actual Time 6:36 AM EDT 8:32 PM EDT
Civil Twilight 6:07 AM EDT 9:00 PM EDT
Nautical Twilight 5:32 AM EDT 9:35 PM EDT
Astronomical Twilight 4:55 AM EDT 10:13 PM EDT
Moon 4:34 AM EDT (5/6) 5:34 PM EDT (5/6)
Length of Visible Light 14h 53m
Length of Day
13h 56m
Waning Crescent, 11% of the Moon is Illuminated
May 6
Waning Crescent
May 9
New
May 18
First Quarter
May 25
Full
May 31
Last Quarter

Hourly Weather History & Observations

Time (EDT) Temp. Dew Point Humidity Pressure Visibility Wind Dir Wind Speed Gust Speed Precip Events Conditions
12:15 AM 51.8 °F 50.0 °F 94% 29.84 in 10.0 mi East 10.4 mph 17.3 mph N/A   Overcast
12:35 AM 53.6 °F 50.0 °F 88% 29.84 in 10.0 mi East 9.2 mph - N/A   Overcast
12:55 AM 53.6 °F 51.8 °F 94% 29.84 in 10.0 mi East 9.2 mph - N/A   Overcast
1:15 AM 53.6 °F 51.8 °F 94% 29.83 in 10.0 mi East 10.4 mph 16.1 mph N/A   Overcast
1:35 AM 53.6 °F 51.8 °F 94% 29.83 in 10.0 mi East 13.8 mph - N/A   Overcast
1:55 AM 53.6 °F 51.8 °F 94% 29.82 in 10.0 mi East 12.7 mph 21.9 mph N/A   Overcast
2:15 AM 53.6 °F 50.0 °F 88% 29.83 in 10.0 mi East 12.7 mph 19.6 mph N/A   Overcast
2:35 AM 53.6 °F 50.0 °F 88% 29.82 in 7.0 mi East 12.7 mph 20.7 mph N/A   Overcast
2:55 AM 51.8 °F 50.0 °F 94% 29.81 in 10.0 mi ENE 10.4 mph 16.1 mph N/A   Overcast
3:15 AM 51.8 °F 50.0 °F 94% 29.80 in 7.0 mi East 9.2 mph - N/A   Overcast
3:35 AM 51.8 °F 50.0 °F 94% 29.79 in 10.0 mi ENE 11.5 mph - N/A   Mostly Cloudy
3:55 AM 51.8 °F 51.8 °F 100% 29.80 in 10.0 mi ENE 10.4 mph 16.1 mph N/A   Mostly Cloudy
4:15 AM 51.8 °F 50.0 °F 94% 29.80 in 10.0 mi ENE 9.2 mph - N/A   Overcast
4:35 AM 53.6 °F 51.8 °F 94% 29.80 in 10.0 mi East 6.9 mph - N/A   Overcast
4:55 AM 51.8 °F 50.0 °F 94% 29.79 in 10.0 mi ENE 6.9 mph - N/A   Overcast
5:15 AM 51.8 °F 50.0 °F 94% 29.79 in 10.0 mi ENE 10.4 mph - N/A   Overcast
5:35 AM 51.8 °F 50.0 °F 94% 29.80 in 10.0 mi ENE 9.2 mph - N/A   Overcast
5:55 AM 51.8 °F 50.0 °F 94% 29.80 in 10.0 mi NE 10.4 mph - N/A   Overcast
6:15 AM 51.8 °F 50.0 °F 94% 29.81 in 10.0 mi East 5.8 mph - N/A   Overcast
6:35 AM 51.8 °F 50.0 °F 94% 29.82 in 10.0 mi East 6.9 mph - N/A   Overcast
6:55 AM 50.0 °F 48.2 °F 94% 29.85 in 4.0 mi SSW 9.2 mph 20.7 mph N/A   Unknown
7:15 AM 50.0 °F 46.4 °F 87% 29.85 in 10.0 mi South 4.6 mph - N/A   Overcast
7:35 AM 50.0 °F 46.4 °F 87% 29.85 in 10.0 mi Calm Calm - N/A   Overcast
7:55 AM 50.0 °F 48.2 °F 94% 29.86 in 10.0 mi Calm Calm - N/A   Overcast
8:15 AM 50.0 °F 48.2 °F 94% 29.86 in 10.0 mi Calm Calm - N/A   Overcast
8:35 AM 50.0 °F 48.2 °F 94% 29.87 in 10.0 mi ENE 3.5 mph - N/A   Overcast
9:15 AM 51.8 °F 48.2 °F 88% 29.86 in 10.0 mi NE 5.8 mph - N/A   Overcast
9:35 AM 51.8 °F 48.2 °F 88% 29.87 in 10.0 mi ENE 5.8 mph - N/A   Mostly Cloudy
9:55 AM 51.8 °F 48.2 °F 88% 29.88 in 10.0 mi ENE 6.9 mph - N/A   Mostly Cloudy
10:15 AM 51.8 °F 48.2 °F 88% 29.88 in 10.0 mi ENE 4.6 mph - N/A   Overcast
10:35 AM 51.8 °F 48.2 °F 88% 29.88 in 10.0 mi ENE 3.5 mph - N/A   Overcast
10:55 AM 51.8 °F 48.2 °F 88% 29.89 in 10.0 mi ENE 5.8 mph - N/A   Overcast
11:15 AM 53.6 °F 50.0 °F 88% 29.88 in 10.0 mi ENE 9.2 mph - N/A   Overcast
11:35 AM 53.6 °F 50.0 °F 88% 29.89 in 10.0 mi East 9.2 mph - N/A   Mostly Cloudy
11:55 AM 53.6 °F 50.0 °F 88% 29.88 in 10.0 mi East 5.8 mph - N/A   Overcast
12:15 PM 55.4 °F 51.8 °F 88% 29.88 in 10.0 mi East 9.2 mph - N/A   Overcast
12:35 PM 57.2 °F 53.6 °F 88% 29.88 in 10.0 mi East 9.2 mph - N/A   Overcast
12:55 PM 57.2 °F 53.6 °F 88% 29.88 in 10.0 mi East 10.4 mph 17.3 mph N/A   Overcast
1:15 PM 59.0 °F 53.6 °F 82% 29.87 in 10.0 mi East 16.1 mph 19.6 mph N/A   Overcast
1:35 PM 60.8 °F 53.6 °F 77% 29.87 in 10.0 mi East 11.5 mph - N/A   Overcast
2:15 PM 62.6 °F 53.6 °F 72% 29.86 in 10.0 mi East 11.5 mph - N/A   Mostly Cloudy
2:35 PM 64.4 °F 53.6 °F 68% 29.85 in 10.0 mi East 8.1 mph - N/A   Clear
2:55 PM 66.2 °F 53.6 °F 64% 29.85 in 10.0 mi ENE 8.1 mph - N/A   Scattered Clouds
3:15 PM 64.4 °F 53.6 °F 68% 29.84 in 10.0 mi NE 8.1 mph - N/A   Mostly Cloudy
3:35 PM 64.4 °F 51.8 °F 64% 29.84 in 10.0 mi NE 6.9 mph - N/A   Overcast
3:55 PM 62.6 °F 51.8 °F 68% 29.84 in 10.0 mi NNE 3.5 mph - N/A   Overcast
4:15 PM 62.6 °F 51.8 °F 68% 29.83 in 10.0 mi NNE 8.1 mph - N/A   Overcast
4:35 PM 53.6 °F 44.6 °F 72% 29.85 in 10.0 mi SW 11.5 mph 26.5 mph N/A   Overcast
4:55 PM 50.0 °F 46.4 °F 87% 29.85 in 7.0 mi NNW 5.8 mph - N/A   Overcast
5:15 PM 50.0 °F 48.2 °F 94% 29.87 in 0.8 mi ESE 10.4 mph 17.3 mph N/A   Overcast
5:35 PM 50.0 °F 48.2 °F 94% 29.85 in 7.0 mi NW 8.1 mph - N/A   Overcast
5:55 PM 51.8 °F 48.2 °F 88% 29.85 in 10.0 mi NW 3.5 mph - N/A   Mostly Cloudy
6:15 PM 51.8 °F 50.0 °F 94% 29.86 in 10.0 mi NW 4.6 mph - N/A   Mostly Cloudy
6:35 PM 51.8 °F 50.0 °F 94% 29.86 in 10.0 mi NW 4.6 mph - N/A   Mostly Cloudy
6:55 PM 51.8 °F 50.0 °F 94% 29.86 in 10.0 mi NNW 5.8 mph - N/A   Overcast
7:15 PM 53.6 °F 50.0 °F 88% 29.86 in 10.0 mi NW 4.6 mph - N/A   Scattered Clouds
7:35 PM 53.6 °F 50.0 °F 88% 29.88 in 10.0 mi Calm Calm - N/A   Mostly Cloudy
7:55 PM 53.6 °F 50.0 °F 88% 29.89 in 10.0 mi Calm Calm - N/A   Overcast
8:15 PM 51.8 °F 50.0 °F 94% 29.89 in 10.0 mi Calm Calm - N/A   Overcast
8:35 PM 53.6 °F 50.0 °F 88% 29.89 in 10.0 mi Calm Calm - N/A   Overcast
8:55 PM 53.6 °F 51.8 °F 94% 29.90 in 10.0 mi Calm Calm - N/A   Overcast
9:15 PM 51.8 °F 50.0 °F 94% 29.91 in 4.0 mi Calm Calm - N/A   Overcast
9:35 PM 51.8 °F 50.0 °F 94% 29.91 in 3.0 mi SW 5.8 mph - N/A   Overcast
10:15 PM 51.8 °F 50.0 °F 94% 29.91 in 10.0 mi NNW 8.1 mph - N/A   Overcast
10:35 PM 51.8 °F 50.0 °F 94% 29.90 in 10.0 mi NNW 6.9 mph - N/A   Overcast
10:55 PM 51.8 °F 50.0 °F 94% 29.91 in 10.0 mi NW 5.8 mph - N/A   Scattered Clouds
11:15 PM 51.8 °F 50.0 °F 94% 29.91 in 10.0 mi NNW 3.5 mph - N/A   Scattered Clouds
11:35 PM 51.8 °F 50.0 °F 94% 29.91 in 10.0 mi SE 3.5 mph - N/A   Scattered Clouds
11:55 PM 51.8 °F 50.0 °F 94% 29.91 in 10.0 mi Calm Calm - N/A   Overcast